Tiempo atmosférico en la estación meteorológica de Alfaro, La Rioja (285 m.)



Fecha
DESCASC
Temp. máxima en grados centígrados (hora)
DESCASC
Temp. mínima en grados centígrados (hora)
DESCASC
Temp. media en grados centígrados
DESCASC
Racha de viento máxima en m/sg (hora)
DESCASC
Velocidad máxima media en intervalos de 10 minutos(hora)
DESCASC
Precipitaciones diarias en mm
DESCASC
Precipitaciones de 00:00 a 06:00 en mm
DESCASC
Precipitaciones de 06:00 a 12:00 en mm
DESCASC
Precipitaciones de 12:00 a 18:00 en mm
DESCASC
Precipitaciones de 18:00 a 24:00 en mm
DESCASC
11-08-2020 30 (14:10) 20.7 (23:59) 25.4 10.56 (15:30) 6.94 (15:30) 2 0 1.6 0.4 0
10-08-2020 31 (15:30) 19.4 (07:50) 25.2 13.61 (16:00) 7.78 (16:00) 0 0 0 0 0
09-08-2020 35.5 (18:40) 17.2 (07:30) 26.4 15 (23:10) 9.44 (23:20) 1 0 0 1 0
08-08-2020 35.9 (16:40) 17.3 (07:10) 26.6 16.39 (21:10) 9.44 (22:20) 0.4 0 0 0 0.4
07-08-2020 37.6 (16:40) 18.4 (00:00) 28 17.22 (22:20) 9.72 (22:20) 0.2 0 0 0 0.2
06-08-2020 35.9 (16:50) 13 (00:00) 24.5 10 (13:30) 5.28 (14:00) 0 0 0 0 0
05-08-2020 33.5 (19:40) 12.6 (00:00) 23.1 5.56 (10:40) 3.61 (10:40) 0 0 0 0 0
04-08-2020 27.8 (15:50) 14.9 (04:10) 21.3 11.67 (11:50) 6.67 (12:30) 0 0 0 0 0
03-08-2020 26.1 (17:10) 16.4 (07:00) 21.3 11.67 (10:10) 7.22 (11:50) 0 0 0 0 0
02-08-2020 26.9 (15:30) 19 (00:00) 22.9 12.5 (15:50) 8.06 (15:40) 0 0 0 0 0
01-08-2020 29 (16:20) 20.8 (00:00) 24.9 13.33 (16:10) 8.06 (16:00) 0 0 0 0 0
31-07-2020 37.5 (18:10) 16.1 (07:10) 26.8 7.78 (10:00) 5 (10:50) 0 0 0 0 0
30-07-2020 37 (16:10) 17.6 (00:00) 27.3 16.11 (18:00) 9.44 (18:00) 0.4 0 0 0 0.4
29-07-2020 33.7 (18:10) 19.2 (00:00) 26.5 8.06 (10:30) 4.72 (10:30) 0.6 0.6 0 0 0
28-07-2020 32.3 (17:10) 19.8 (00:00) 26 10.83 (21:00) 6.67 (20:30) 0 0 0 0 0
27-07-2020 37.6 (17:10) 16.9 (00:00) 27.2 10.83 (20:50) 6.11 (23:20) 0 0 0 0 0
26-07-2020 33.3 (19:00) 17.6 (00:00) 25.4 10.28 (00:40) 5 (05:10) 0 0 0 0 0
25-07-2020 33.7 (18:10) 13.6 (00:00) 23.7 13.61 (23:10) 7.22 (23:20) 0 0 0 0 0
24-07-2020 29 (15:30) 16.9 (00:00) 22.9 10.83 (18:10) 6.67 (18:10) 0 0 0 0 0
23-07-2020 33.9 (16:00) 19 (00:00) 26.5 9.17 (18:00) 5 (19:30) 0 0 0 0 0
22-07-2020 34.3 (17:20) 16.5 (00:00) 25.4 7.22 (23:59) 4.17 (23:59) 0 0 0 0 0
21-07-2020 35.2 (17:00) 16.3 (00:00) 25.8 15.83 (20:00) 10 (20:00) 0.4 0 0 0 0.4
20-07-2020 35.7 (18:30) 19.1 (00:00) 27.4 10 (22:50) 6.11 (22:50) 0 0 0 0 0
19-07-2020 35.1 (18:40) 12.9 (00:00) 24 6.94 (23:50) 4.17 (23:50) 0 0 0 0 0
18-07-2020 32.7 (18:20) 14 (00:00) 23.4 9.17 (00:20) 5 (00:20) 0 0 0 0 0
17-07-2020 26.5 (15:40) 15.2 (00:00) 20.8 13.61 (17:30) 8.61 (19:30) 0 0 0 0 0
16-07-2020 27.5 (15:30) 14 (00:00) 20.8 11.11 (18:40) 6.94 (18:30) 0 0 0 0 0
15-07-2020 25 (15:50) 13.2 (00:00) 19.1 11.11 (14:30) 6.67 (14:30) 0 0 0 0 0
14-07-2020 27.5 (16:10) 14 (00:00) 20.8 11.94 (16:10) 6.67 (18:40) 0 0 0 0 0

Gráficas

Temp. máximas Temp. mínimas Temp. medias Precipitaciones Rachas de viento máximas Velocidades máximas media en intervalos de 10 minutos

Datos horarios

Fecha y hora oficial Temperatura (ºC) Velocidad del viento (km/h) Dirección del viento Racha (km/h) Dirección de racha Precipitación (mm) Presión (hPa) Tendencia (hPa) Humedad (%)
2020-08-12 23:00:00 20.1 3 Noroeste 14 Norte 0 -- -- 72
2020-08-12 22:00:00 20.8 8 Noroeste 24 Noroeste 0 -- -- 66
2020-08-12 21:00:00 21.9 13 Noroeste 23 Norte 0 -- -- 65
2020-08-12 20:00:00 23.1 14 Noroeste 26 Noroeste 0 -- -- 58
2020-08-12 19:00:00 24.3 8 Nordeste 22 Norte 0 -- -- 57
2020-08-12 18:00:00 25 14 Noroeste 31 Noroeste 0 -- -- 55
2020-08-12 17:00:00 28.5 9 Noroeste 28 Norte 0 -- -- 47
2020-08-12 16:00:00 29.8 16 Sudeste 28 Sudeste 0 -- -- 40
2020-08-12 15:00:00 28.9 16 Sudeste 26 Sudeste 0 -- -- 47
2020-08-12 14:00:00 29.2 13 Sudeste 27 Sudeste 0.2 -- -- 47
2020-08-12 13:00:00 27.6 16 Sudeste 29 Sudeste 0 -- -- 51
2020-08-12 12:00:00 26 17 Este 27 Sudeste 0 -- -- 55
2020-08-12 11:00:00 24.4 19 Sudeste 28 Sudeste 0 -- -- 63
2020-08-12 10:00:00 20.9 9 Sudeste 23 Sudeste 0 -- -- 72
2020-08-12 09:00:00 19.1 9 Sur 14 Sur 0 -- -- 85
2020-08-12 08:00:00 16.9 8 Sudeste 17 Sur 0.2 -- -- 92
2020-08-12 07:00:00 16.6 6 Sur 8 Sudeste 0 -- -- 93
2020-08-12 06:00:00 17.5 7 Sur 10 Sur 0 -- -- 94
2020-08-12 05:00:00 17.8 4 Sudeste 10 Sudoeste 0 -- -- 94
2020-08-12 04:00:00 17.8 8 Oeste 15 Oeste 0.2 -- -- 93
2020-08-12 03:00:00 18.2 8 Oeste 21 Sur 0.2 -- -- 88
2020-08-12 02:00:00 18.6 6 Este 13 Sur 0.2 -- -- 87
2020-08-12 01:00:00 20.1 3 Este 23 Sudoeste 0 -- -- 73
2020-08-12 00:00:00 20.7 8 Sudoeste 35 Sudoeste 0 -- -- 78
2020-08-11 23:00:00 20.8 5 Sudeste 9 Sudeste 0 -- -- 84
2020-08-11 22:00:00 21.6 0 Calma 9 Noroeste 0 -- -- 80
2020-08-11 21:00:00 22.3 5 Norte 16 Nordeste 0 -- -- 74
2020-08-11 20:00:00 23.3 9 Norte 21 Norte 0 -- -- 68
2020-08-11 19:00:00 24.3 10 Norte 28 Norte 0 -- -- 66
2020-08-11 18:00:00 26.9 12 Sudoeste 22 Sudoeste 0.2 -- -- 58
2020-08-11 17:00:00 27.7 14 Sur 36 Sudeste 0 -- -- 52
2020-08-11 16:00:00 29.1 16 Sudeste 38 Sudeste 0 -- -- 47
2020-08-11 15:00:00 29.6 19 Sudeste 33 Sudeste 0 -- -- 53
2020-08-11 14:00:00 29.5 20 Sudeste 30 Sur 0 -- -- 54
2020-08-11 13:00:00 27.8 18 Sudeste 32 Sudeste 0.2 -- -- 59
2020-08-11 12:00:00 26 18 Sudeste 26 Sudeste 0 -- -- 68
2020-08-11 11:00:00 22.9 6 Sur 29 Sudeste 0.2 -- -- 86
2020-08-11 10:00:00 23.6 14 Sur 23 Sur 0.2 -- -- 77
2020-08-11 09:00:00 21.4 7 Sudoeste 11 Sur 0.4 -- -- 91
2020-08-11 08:00:00 21.3 6 Nordeste 24 Sudeste 0.4 -- -- 88
2020-08-11 07:00:00 22 13 Sudeste 26 Sur 0.4 -- -- 87
2020-08-11 06:00:00 22.3 6 Sudeste 12 Este 0 -- -- 83
2020-08-11 05:00:00 22.4 9 Sudoeste 17 Este 0 -- -- 80
2020-08-11 04:00:00 22.5 10 Este 17 Este 0 -- -- 75
2020-08-11 03:00:00 23.3 3 Sudeste 9 Sur 0 -- -- 73
2020-08-11 02:00:00 24.7 5 Sudoeste 24 Sudeste 0 -- -- 65
2020-08-11 01:00:00 25.5 14 Sudeste 22 Este 0 -- -- 61
2020-08-11 00:00:00 24.8 9 Sudeste 17 Este 0 -- -- 65
2020-08-10 23:00:00 26.4 4 Sudeste 20 Sudeste 0 -- -- 57
2020-08-10 22:00:00 28.1 16 Sudeste 41 Sur 0 -- -- 47
2020-08-10 21:00:00 28.7 6 Sudeste 30 Oeste 0 -- -- 45
2020-08-10 20:00:00 30.2 22 Sudeste 36 Sudeste 0 -- -- 41
2020-08-10 19:00:00 30.1 15 Sudeste 38 Sudeste 0 -- -- 35
2020-08-10 18:00:00 29.7 17 Sudeste 26 Sudeste 0 -- -- 39
2020-08-10 17:00:00 30.9 11 Sur 45 Sudeste 0 -- -- 35
2020-08-10 16:00:00 30.7 28 Sudeste 49 Sudeste 0 -- -- 42
2020-08-10 15:00:00 30.3 18 Sudeste 27 Sudeste 0 -- -- 43
2020-08-10 14:00:00 29.9 13 Sur 27 Sudeste 0 -- -- 46
2020-08-10 13:00:00 29.6 14 Sudeste 28 Sudeste 0 -- -- 48
2020-08-10 12:00:00 30.2 14 Sudeste 26 Sudeste 0 -- -- 44
2020-08-10 11:00:00 28.4 14 Sudeste 27 Sudeste 0 -- -- 46
2020-08-10 10:00:00 25.7 9 Sudeste 23 Sudeste 0 -- -- 56
2020-08-10 09:00:00 22.6 3 Sudeste 6 Este 0 -- -- 72
2020-08-10 08:00:00 19.5 3 Este 10 Sur 0 -- -- 77
2020-08-10 07:00:00 19.8 5 Sur 12 Sudeste 0 -- -- 74
2020-08-10 06:00:00 19.5 8 Sur 10 Sur 0 -- -- 73
2020-08-10 05:00:00 20.6 6 Sudeste 9 Sudeste 0 -- -- 68
2020-08-10 04:00:00 21.9 5 Sudeste 17 Sur 0 -- -- 66
2020-08-10 03:00:00 22.5 12 Sur 18 Sudoeste 0 -- -- 58
2020-08-10 02:00:00 24.3 11 Sur 17 Sur 0 -- -- 54
2020-08-10 01:00:00 25.9 13 Sur 28 Sudeste 0 -- -- 47
2020-08-10 00:00:00 28 21 Sudeste 54 Este 0 -- -- 42
2020-08-09 23:00:00 29.2 29 Este 50 Este 0 -- -- 43
2020-08-09 22:00:00 28.6 15 Noroeste 29 Oeste 0 -- -- 51
2020-08-09 21:00:00 29.9 12 Sur 27 Noroeste 0 -- -- 41
2020-08-09 20:00:00 30.5 14 Noroeste 32 Noroeste 0 -- -- 51
2020-08-09 19:00:00 33.5 6 Norte 12 Sur 0 -- -- 47
2020-08-09 18:00:00 35.4 8 Sur 25 Sudeste 0 -- -- 33
2020-08-09 17:00:00 33.5 12 Sudeste 23 Sudeste 0.8 -- -- 44
2020-08-09 16:00:00 33.3 10 Sur 31 Sudeste 0.2 -- -- 45
2020-08-09 15:00:00 34.8 19 Sudeste 32 Sudeste 0 -- -- 34
2020-08-09 14:00:00 33.7 11 Sudeste 23 Sur 0 -- -- 42
2020-08-09 13:00:00 31.4 3 Sur 14 Sur 0 -- -- 45
2020-08-09 12:00:00 29.3 6 Sudeste 14 Sudeste 0 -- -- 56
2020-08-09 11:00:00 25.3 3 Sur 12 Sudeste 0 -- -- 72
2020-08-09 10:00:00 24 3 Oeste 11 Nordeste 0 -- -- 73
2020-08-09 09:00:00 21.9 2 Este 5 Sudoeste 0 -- -- 82
2020-08-09 08:00:00 17.9 3 Sudoeste 5 Oeste 0 -- -- 93
2020-08-09 07:00:00 17.5 4 Oeste 9 Oeste 0 -- -- 89
2020-08-09 06:00:00 18.6 4 Oeste 7 Oeste 0 -- -- 90
2020-08-09 05:00:00 18.8 5 Nordeste 8 Nordeste 0 -- -- 90
2020-08-09 04:00:00 19.8 5 Oeste 10 Oeste 0 -- -- 83
2020-08-09 03:00:00 21.5 2 Noroeste 10 Noroeste 0 -- -- 78
2020-08-09 02:00:00 22.5 5 Noroeste 21 Norte 0 -- -- 74
2020-08-09 01:00:00 22.9 10 Noroeste 30 Norte 0 -- -- 67
2020-08-09 00:00:00 23.5 7 Norte 36 Oeste 0 -- -- 69
2020-08-08 23:00:00 23.8 23 Noroeste 55 Noroeste 0.4 -- -- 71
2020-08-08 22:00:00 29.1 24 Oeste 59 Sur 0 -- -- 39
2020-08-08 21:00:00 32.1 28 Sur 44 Sur 0 -- -- 32
2020-08-08 20:00:00 32.8 10 Noroeste 18 Oeste 0 -- -- 41
2020-08-08 19:00:00 34.6 5 Noroeste 9 Norte 0 -- -- 36
2020-08-08 18:00:00 35.8 4 Noroeste 11 Nordeste 0 -- -- 33
2020-08-08 17:00:00 35.8 5 Norte 12 Oeste 0 -- -- 33
2020-08-08 16:00:00 34.7 5 Norte 12 Norte 0 -- -- 36
2020-08-08 15:00:00 33.4 7 Norte 16 Noroeste 0 -- -- 38
2020-08-08 14:00:00 32.3 4 Noroeste 12 Norte 0 -- -- 43
2020-08-08 13:00:00 30.5 5 Nordeste 10 Nordeste 0 -- -- 45
2020-08-08 12:00:00 28.5 3 Norte 13 Norte 0 -- -- 52
2020-08-08 11:00:00 26.4 9 Norte 18 Norte 0 -- -- 61
2020-08-08 10:00:00 24.7 8 Noroeste 15 Noroeste 0 -- -- 70
2020-08-08 09:00:00 22 9 Noroeste 15 Noroeste 0 -- -- 82
2020-08-08 08:00:00 18.1 3 Oeste 9 Oeste 0 -- -- 93
2020-08-08 07:00:00 17.5 4 Oeste 5 Noroeste 0 -- -- 89
2020-08-08 06:00:00 18.3 0 Calma 6 Norte 0 -- -- 89
2020-08-08 05:00:00 18.6 4 Nordeste 10 Oeste 0 -- -- 87
2020-08-08 04:00:00 19.6 5 Oeste 9 Oeste 0 -- -- 82
2020-08-08 03:00:00 21.7 5 Noroeste 18 Sudeste 0 -- -- 71
2020-08-08 02:00:00 22.9 10 Norte 26 Sur 0 -- -- 64
2020-08-08 01:00:00 24.1 15 Sudoeste 41 Sudoeste 0 -- -- 60
2020-08-08 00:00:00 22.8 14 Nordeste 23 Nordeste 0.2 -- -- 74
2020-08-07 23:00:00 25.4 13 Norte 62 Oeste 0 -- -- 56
2020-08-07 22:00:00 26.1 12 Oeste 26 Este 0 -- -- 60
2020-08-07 21:00:00 26.4 14 Este 28 Noroeste 0 -- -- 54
2020-08-07 20:00:00 31 25 Norte 41 Norte 0 -- -- 37
2020-08-07 19:00:00 35.8 14 Sudeste 29 Sudeste 0 -- -- 29
2020-08-07 18:00:00 35.3 13 Sudeste 28 Sudeste 0 -- -- 34
2020-08-07 17:00:00 36.8 14 Sudeste 28 Sudeste 0 -- -- 30
2020-08-07 16:00:00 37 17 Sudeste 27 Sudeste 0 -- -- 34
2020-08-07 15:00:00 36 17 Sudeste 29 Sudeste 0 -- -- 35
2020-08-07 14:00:00 33.8 16 Sudeste 27 Sudeste 0 -- -- 40
2020-08-07 13:00:00 32.6 17 Sudeste 26 Este 0 -- -- 41
2020-08-07 12:00:00 30.4 19 Sudeste 31 Sudeste 0 -- -- 42
2020-08-07 11:00:00 28.8 18 Sudeste 28 Sudeste 0 -- -- 48
2020-08-07 10:00:00 27.1 13 Sudeste 19 Sudeste 0 -- -- 55
2020-08-07 09:00:00 23.7 8 Sur 12 Sur 0 -- -- 67
2020-08-07 08:00:00 19.7 8 Sur 12 Sudoeste 0 -- -- 83
2020-08-07 07:00:00 18.5 10 Sur 12 Sur 0 -- -- 87
2020-08-07 06:00:00 18.8 6 Sudoeste 8 Sudoeste 0 -- -- 82
2020-08-07 05:00:00 19.8 5 Sudeste 10 Sur 0 -- -- 77
2020-08-07 04:00:00 20.2 5 Sudoeste 6 Sudoeste 0 -- -- 78
2020-08-07 03:00:00 22.1 3 Sur 9 Este 0 -- -- 69
2020-08-07 02:00:00 24.4 0 Calma 12 Sur 0 -- -- 61
2020-08-07 01:00:00 23.8 6 Sur 10 Sudeste 0 -- -- 60
2020-08-07 00:00:00 24.5 9 Sur 14 Sudeste 0 -- -- 52
2020-08-06 23:00:00 24.3 6 Sur 9 Sur 0 -- -- 55
2020-08-06 22:00:00 26.8 3 Oeste 9 Sur 0 -- -- 56
2020-08-06 21:00:00 30.6 9 Sur 15 Sur 0 -- -- 41
2020-08-06 20:00:00 32.6 9 Sur 22 Sudeste 0 -- -- 36
2020-08-06 19:00:00 34.5 10 Sur 22 Sur 0 -- -- 28
2020-08-06 18:00:00 35.6 14 Sudeste 25 Sudeste 0 -- -- 32
2020-08-06 17:00:00 35.7 11 Sudeste 27 Sudeste 0 -- -- 33
2020-08-06 16:00:00 35 13 Sudeste 29 Sudeste 0 -- -- 32
2020-08-06 15:00:00 33.7 17 Sudeste 29 Sudeste 0 -- -- 40
2020-08-06 14:00:00 32 19 Sudeste 36 Sudeste 0 -- -- 45
2020-08-06 13:00:00 30.2 18 Sudeste 28 Sudeste 0 -- -- 54
2020-08-06 12:00:00 28.5 15 Sudeste 28 Sudeste 0 -- -- 59
2020-08-06 11:00:00 26.6 16 Sudeste 26 Sudeste 0 -- -- 64
2020-08-06 10:00:00 24.3 5 Este 12 Sur 0 -- -- 58
2020-08-06 09:00:00 19.9 2 Este 6 Este 0 -- -- 68
2020-08-06 08:00:00 14.8 3 Este 11 Oeste 0 -- -- 90
2020-08-06 07:00:00 13.1 2 Sur 8 Sur 0 -- -- 87
2020-08-06 06:00:00 13.8 3 Sur 8 Oeste 0 -- -- 87
2020-08-06 05:00:00 14.6 5 Oeste 8 Oeste 0 -- -- 85
2020-08-06 04:00:00 15.8 4 Sudoeste 9 Sur 0 -- -- 81
2020-08-06 03:00:00 17.6 3 Sur 9 Este 0 -- -- 77
2020-08-06 02:00:00 19.9 4 Este 12 Noroeste 0 -- -- 68
2020-08-06 01:00:00 21.7 8 Noroeste 19 Noroeste 0 -- -- 56
2020-08-06 00:00:00 21.9 10 Noroeste 16 Oeste 0 -- -- 58
2020-08-05 23:00:00 24.3 5 Noroeste 14 Norte 0 -- -- 51
2020-08-05 22:00:00 25.8 8 Norte 15 Norte 0 -- -- 47
2020-08-05 21:00:00 30 4 Sur 5 Sudoeste 0 -- -- 39
2020-08-05 20:00:00 33.4 3 Sur 8 Sudeste 0 -- -- 29
2020-08-05 19:00:00 33.3 4 Sudeste 12 Sudeste 0 -- -- 25
2020-08-05 18:00:00 32.5 5 Nordeste 16 Nordeste 0 -- -- 23
2020-08-05 17:00:00 31.8 6 Nordeste 14 Este 0 -- -- 25
2020-08-05 16:00:00 31 6 Nordeste 15 Este 0 -- -- 27
2020-08-05 15:00:00 29.8 9 Este 16 Este 0 -- -- 28
2020-08-05 14:00:00 27.4 8 Nordeste 15 Este 0 -- -- 34
2020-08-05 13:00:00 25.8 6 Norte 14 Este 0 -- -- 41
2020-08-05 12:00:00 23.9 9 Norte 16 Norte 0 -- -- 48
2020-08-05 11:00:00 21.9 8 Norte 20 Noroeste 0 -- -- 56
2020-08-05 10:00:00 19.3 8 Norte 13 Noroeste 0 -- -- 65
2020-08-05 09:00:00 17 5 Norte 12 Norte 0 -- -- 75
2020-08-05 08:00:00 14.4 5 Noroeste 13 Noroeste 0 -- -- 85
2020-08-05 07:00:00 13.1 9 Noroeste 17 Noroeste 0 -- -- 88
2020-08-05 06:00:00 13.1 6 Noroeste 11 Noroeste 0 -- -- 86
2020-08-05 05:00:00 13.7 6 Noroeste 12 Noroeste 0 -- -- 83
2020-08-05 04:00:00 14.6 8 Noroeste 17 Oeste 0 -- -- 78
2020-08-05 03:00:00 14.4 9 Oeste 13 Noroeste 0 -- -- 72
2020-08-05 02:00:00 16.3 7 Noroeste 13 Noroeste 0 -- -- 68
2020-08-05 01:00:00 17.8 9 Noroeste 16 Noroeste 0 -- -- 60
2020-08-05 00:00:00 19.1 10 Noroeste 22 Noroeste 0 -- -- 57
2020-08-04 23:00:00 19.8 13 Noroeste 22 Noroeste 0 -- -- 58
2020-08-04 22:00:00 21.1 11 Norte 24 Norte 0 -- -- 53
2020-08-04 21:00:00 22.7 12 Norte 29 Norte 0 -- -- 48
2020-08-04 20:00:00 24.7 17 Norte 32 Nordeste 0 -- -- 44
2020-08-04 19:00:00 26.1 20 Norte 35 Norte 0 -- -- 43
2020-08-04 18:00:00 27.4 19 Noroeste 36 Noroeste 0 -- -- 37
2020-08-04 17:00:00 27.3 21 Norte 40 Norte 0 -- -- 39
2020-08-04 16:00:00 27.8 21 Noroeste 40 Norte 0 -- -- 38
2020-08-04 15:00:00 27.1 19 Norte 39 Noroeste 0 -- -- 41
2020-08-04 14:00:00 26.5 24 Noroeste 38 Noroeste 0 -- -- 44
2020-08-04 13:00:00 25.3 21 Noroeste 39 Noroeste 0 -- -- 48
2020-08-04 12:00:00 23.4 23 Noroeste 42 Noroeste 0 -- -- 52
2020-08-04 11:00:00 22 18 Noroeste 29 Norte 0 -- -- 56
2020-08-04 10:00:00 20.9 15 Noroeste 33 Noroeste 0 -- -- 60
2020-08-04 09:00:00 19.7 19 Noroeste 30 Noroeste 0 -- -- 63
2020-08-04 08:00:00 17.2 10 Norte 15 Norte 0 -- -- 71
2020-08-04 07:00:00 16.8 11 Norte 19 Norte 0 -- -- 71
2020-08-04 06:00:00 17.1 11 Noroeste 18 Noroeste 0 -- -- 68
2020-08-04 05:00:00 16.5 7 Noroeste 18 Noroeste 0 -- -- 71
2020-08-04 04:00:00 15 6 Noroeste 15 Noroeste 0 -- -- 75
2020-08-04 03:00:00 15.5 8 Noroeste 16 Noroeste 0 -- -- 74
2020-08-04 02:00:00 16.3 9 Noroeste 21 Noroeste 0 -- -- 71
2020-08-04 01:00:00 16.9 10 Noroeste 26 Noroeste 0 -- -- 67
2020-08-04 00:00:00 17.3 8 Noroeste 22 Norte 0 -- -- 63
2020-08-03 23:00:00 18.3 8 Noroeste 22 Norte 0 -- -- 60
2020-08-03 22:00:00 19.6 12 Noroeste 33 Norte 0 -- -- 56
2020-08-03 21:00:00 21.2 18 Norte 35 Norte 0 -- -- 51
2020-08-03 20:00:00 22.7 14 Norte 39 Norte 0 -- -- 49
2020-08-03 19:00:00 24.7 22 Norte 39 Norte 0 -- -- 43
2020-08-03 18:00:00 25.6 23 Norte 39 Norte 0 -- -- 42
2020-08-03 17:00:00 26 22 Norte 42 Norte 0 -- -- 42
2020-08-03 16:00:00 25.9 22 Norte 42 Norte 0 -- -- 43
2020-08-03 15:00:00 25.1 23 Norte 40 Norte 0 -- -- 43
2020-08-03 14:00:00 24.8 19 Norte 40 Noroeste 0 -- -- 45
2020-08-03 13:00:00 24.6 21 Noroeste 42 Noroeste 0 -- -- 44
2020-08-03 12:00:00 22.9 23 Noroeste 40 Noroeste 0 -- -- 48
2020-08-03 11:00:00 21.7 23 Noroeste 42 Norte 0 -- -- 53
2020-08-03 10:00:00 20.4 23 Noroeste 40 Noroeste 0 -- -- 55
2020-08-03 09:00:00 19.4 22 Noroeste 36 Noroeste 0 -- -- 61
2020-08-03 08:00:00 17.6 15 Noroeste 28 Noroeste 0 -- -- 68
2020-08-03 07:00:00 16.4 17 Noroeste 33 Noroeste 0 -- -- 73
2020-08-03 06:00:00 17.2 16 Noroeste 31 Noroeste 0 -- -- 72
2020-08-03 05:00:00 17.9 14 Noroeste 32 Noroeste 0 -- -- 69
2020-08-03 04:00:00 18.1 12 Noroeste 27 Noroeste 0 -- -- 68
2020-08-03 03:00:00 18.3 14 Noroeste 28 Noroeste 0 -- -- 68
2020-08-03 02:00:00 18.6 15 Noroeste 34 Noroeste 0 -- -- 66
2020-08-03 01:00:00 18.7 15 Noroeste 29 Noroeste 0 -- -- 65
2020-08-03 00:00:00 19 16 Noroeste 32 Noroeste 0 -- -- 66
2020-08-02 23:00:00 19.4 14 Noroeste 29 Noroeste 0 -- -- 64
2020-08-02 22:00:00 19.3 13 Norte 28 Noroeste 0 -- -- 65
2020-08-02 21:00:00 20.9 17 Norte 41 Norte 0 -- -- 59
2020-08-02 20:00:00 22.2 21 Noroeste 40 Norte 0 -- -- 53
2020-08-02 19:00:00 21.8 16 Norte 33 Norte 0 -- -- 57
2020-08-02 18:00:00 23.4 18 Norte 42 Norte 0 -- -- 52
2020-08-02 17:00:00 23.5 25 Noroeste 44 Noroeste 0 -- -- 52
2020-08-02 16:00:00 26.3 24 Noroeste 45 Noroeste 0 -- -- 46
2020-08-02 15:00:00 26.3 25 Noroeste 43 Norte 0 -- -- 48
2020-08-02 14:00:00 25.4 26 Noroeste 39 Noroeste 0 -- -- 52
2020-08-02 13:00:00 23.5 21 Noroeste 36 Noroeste 0 -- -- 56
2020-08-02 12:00:00 24.3 20 Noroeste 36 Noroeste 0 -- -- 56
2020-08-02 11:00:00 23.6 21 Norte 34 Noroeste 0 -- -- 57
2020-08-02 10:00:00 22.4 21 Noroeste 36 Noroeste 0 -- -- 63
2020-08-02 09:00:00 21.4 18 Noroeste 32 Norte 0 -- -- 67
2020-08-02 08:00:00 20 14 Noroeste 31 Noroeste 0 -- -- 73
2020-08-02 07:00:00 19.2 14 Noroeste 28 Noroeste 0 -- -- 75
2020-08-02 06:00:00 20.1 17 Noroeste 30 Noroeste 0 -- -- 72
2020-08-02 05:00:00 20.4 17 Noroeste 30 Noroeste 0 -- -- 72
2020-08-02 04:00:00 21 16 Noroeste 28 Noroeste 0 -- -- 72
2020-08-02 03:00:00 21.1 12 Noroeste 25 Noroeste 0 -- -- 72
2020-08-02 02:00:00 21.3 16 Noroeste 28 Noroeste 0 -- -- 71
2020-08-02 01:00:00 21.2 15 Noroeste 27 Noroeste 0 -- -- 72
2020-08-02 00:00:00 20.8 12 Noroeste 23 Noroeste 0 -- -- 73
2020-08-01 23:00:00 21.2 11 Noroeste 26 Noroeste 0 -- -- 72
2020-08-01 22:00:00 22 14 Norte 36 Noroeste 0 -- -- 68
2020-08-01 21:00:00 23.3 17 Norte 37 Norte 0 -- -- 63
2020-08-01 20:00:00 25.6 22 Norte 42 Norte 0 -- -- 55
2020-08-01 19:00:00 26.9 27 Norte 44 Norte 0 -- -- 51
2020-08-01 18:00:00 28 26 Norte 42 Norte 0 -- -- 48
2020-08-01 17:00:00 29 26 Noroeste 48 Noroeste 0 -- -- 47
2020-08-01 16:00:00 28.9 29 Noroeste 45 Noroeste 0 -- -- 48
2020-08-01 15:00:00 28.3 26 Noroeste 42 Noroeste 0 -- -- 50
2020-08-01 14:00:00 27.8 26 Noroeste 46 Norte 0 -- -- 52
2020-08-01 13:00:00 27.5 23 Noroeste 39 Noroeste 0 -- -- 54
2020-08-01 12:00:00 26.4 21 Noroeste 36 Noroeste 0 -- -- 58
2020-08-01 11:00:00 25.1 22 Noroeste 36 Noroeste 0 -- -- 62
2020-08-01 10:00:00 24.2 19 Noroeste 33 Noroeste 0 -- -- 66
2020-08-01 09:00:00 23.5 19 Noroeste 30 Noroeste 0 -- -- 71
2020-08-01 08:00:00 21.5 15 Noroeste 26 Noroeste 0 -- -- 79
2020-08-01 07:00:00 21 14 Noroeste 29 Noroeste 0 -- -- 81
2020-08-01 06:00:00 21.4 15 Noroeste 27 Noroeste 0 -- -- 79
2020-08-01 05:00:00 21.8 15 Noroeste 30 Noroeste 0 -- -- 78
2020-08-01 04:00:00 22.4 17 Noroeste 35 Noroeste 0 -- -- 76
2020-08-01 03:00:00 23.3 14 Noroeste 33 Noroeste 0 -- -- 73
2020-08-01 02:00:00 24.5 17 Noroeste 35 Noroeste 0 -- -- 67
2020-08-01 01:00:00 25.4 18 Noroeste 28 Noroeste 0 -- -- 65
2020-08-01 00:00:00 23.5 6 Norte 14 Noroeste 0 -- -- 66
2020-07-31 23:00:00 24.3 3 Oeste 9 Oeste 0 -- -- 67
2020-07-31 22:00:00 27.7 7 Oeste 8 Oeste 0 -- -- 58
2020-07-31 21:00:00 33.2 3 Nordeste 6 Nordeste 0 -- -- 46
2020-07-31 20:00:00 35.9 4 Nordeste 8 Nordeste 0 -- -- 31
2020-07-31 19:00:00 36.9 4 Norte 10 Norte 0 -- -- 25
2020-07-31 18:00:00 37.2 6 Nordeste 17 Nordeste 0 -- -- 23
2020-07-31 17:00:00 37.1 9 Nordeste 20 Nordeste 0 -- -- 25
2020-07-31 16:00:00 36.8 7 Nordeste 14 Nordeste 0 -- -- 27
2020-07-31 15:00:00 35.7 7 Norte 13 Norte 0 -- -- 30
2020-07-31 14:00:00 34.6 7 Norte 16 Este 0 -- -- 33
2020-07-31 13:00:00 33.4 8 Este 17 Este 0 -- -- 36
2020-07-31 12:00:00 31.1 10 Sudeste 23 Sudeste 0 -- -- 46
2020-07-31 11:00:00 28.8 17 Sudeste 27 Sudeste 0 -- -- 48
2020-07-31 10:00:00 25.8 10 Sudeste 28 Sudeste 0 -- -- 58
2020-07-31 09:00:00 22.8 3 Este 8 Este 0 -- -- 72
2020-07-31 08:00:00 17.9 5 Este 8 Este 0 -- -- 89
2020-07-31 07:00:00 16.2 7 Sur 10 Sur 0 -- -- 92
2020-07-31 06:00:00 16.6 5 Sudeste 6 Este 0 -- -- 92
2020-07-31 05:00:00 17 0 Calma 6 Sudoeste 0 -- -- 90
2020-07-31 04:00:00 17.6 5 Sudoeste 8 Sur 0 -- -- 88
2020-07-31 03:00:00 18.7 3 Nordeste 6 Sur 0 -- -- 85
2020-07-31 02:00:00 20.1 5 Sudoeste 15 Oeste 0 -- -- 80
2020-07-31 01:00:00 21.2 8 Noroeste 15 Oeste 0 -- -- 77
2020-07-31 00:00:00 23 5 Sudeste 10 Sudeste 0 -- -- 73
2020-07-30 23:00:00 24.9 4 Sudoeste 24 Sur 0 -- -- 57
2020-07-30 22:00:00 25.2 18 Sur 33 Sudoeste 0 -- -- 60
2020-07-30 21:00:00 24.6 5 Sur 22 Nordeste 0 -- -- 64
2020-07-30 20:00:00 25.8 12 Nordeste 45 Noroeste 0 -- -- 55
2020-07-30 19:00:00 27.2 28 Noroeste 51 Noroeste 0.4 -- -- 48
2020-07-30 18:00:00 31.6 34 Oeste 58 Noroeste 0 -- -- 33
2020-07-30 17:00:00 35.7 18 Sudeste 37 Sudeste 0 -- -- 31
2020-07-30 16:00:00 36.9 20 Sudeste 37 Sudeste 0 -- -- 31
2020-07-30 15:00:00 35.8 21 Sudeste 37 Sudeste 0 -- -- 30
2020-07-30 14:00:00 34.5 17 Sudeste 34 Sudeste 0 -- -- 36
2020-07-30 13:00:00 32.1 24 Sudeste 36 Sudeste 0 -- -- 38
2020-07-30 12:00:00 30.6 20 Sudeste 34 Sudeste 0 -- -- 45
2020-07-30 11:00:00 28.5 22 Sudeste 34 Sudeste 0 -- -- 47
2020-07-30 10:00:00 27.1 10 Sudeste 18 Sudeste 0 -- -- 56
2020-07-30 09:00:00 23.4 5 Sur 9 Sudeste 0 -- -- 71
2020-07-30 08:00:00 18.8 2 Sur 6 Sudeste 0 -- -- 89
2020-07-30 07:00:00 17.9 5 Este 11 Sudoeste 0 -- -- 90
2020-07-30 06:00:00 17.7 6 Sur 11 Sudoeste 0 -- -- 90
2020-07-30 05:00:00 17.8 5 Sudoeste 6 Sudoeste 0 -- -- 88
2020-07-30 04:00:00 18.3 0 Calma 6 Sur 0 -- -- 85
2020-07-30 03:00:00 19 0 Calma 9 Sudoeste 0 -- -- 85
2020-07-30 02:00:00 19.9 3 Sudoeste 7 Sudoeste 0 -- -- 83
2020-07-30 01:00:00 21.2 3 Oeste 9 Sur 0 -- -- 76
2020-07-30 00:00:00 22.5 7 Sur 12 Sudoeste 0 -- -- 73
2020-07-29 23:00:00 24.1 6 Sudoeste 9 Sudoeste 0 -- -- 71
2020-07-29 22:00:00 26.3 5 Nordeste 9 Sudeste 0 -- -- 60
2020-07-29 21:00:00 28.9 3 Este 10 Sudoeste 0 -- -- 53
2020-07-29 20:00:00 32.8 6 Sur 12 Sur 0 -- -- 45
2020-07-29 19:00:00 33.5 10 Sur 23 Sur 0 -- -- 34
2020-07-29 18:00:00 33.4 14 Sudeste 24 Sudeste 0 -- -- 40
2020-07-29 17:00:00 33.2 12 Sudeste 26 Sudeste 0 -- -- 39
2020-07-29 16:00:00 32.7 17 Sudeste 26 Este 0 -- -- 39
2020-07-29 15:00:00 31.1 8 Sudeste 22 Sudeste 0 -- -- 45
2020-07-29 14:00:00 29.1 5 Este 17 Este 0 -- -- 51
2020-07-29 13:00:00 27.2 4 Norte 14 Oeste 0 -- -- 56
2020-07-29 12:00:00 25.3 8 Norte 20 Noroeste 0 -- -- 61
2020-07-29 11:00:00 23.6 13 Norte 29 Norte 0 -- -- 66
2020-07-29 10:00:00 22.9 15 Noroeste 26 Norte 0 -- -- 69
2020-07-29 09:00:00 20.7 12 Noroeste 20 Noroeste 0 -- -- 81
2020-07-29 08:00:00 19.8 8 Noroeste 18 Noroeste 0 -- -- 85
2020-07-29 07:00:00 19.2 11 Noroeste 24 Noroeste 0 -- -- 86
2020-07-29 06:00:00 19.3 11 Noroeste 22 Noroeste 0 -- -- 86
2020-07-29 05:00:00 20 12 Noroeste 26 Noroeste 0.6 -- -- 83
2020-07-29 04:00:00 20.6 14 Noroeste 25 Noroeste 0 -- -- 75
2020-07-29 03:00:00 20.8 13 Noroeste 22 Noroeste 0 -- -- 76
2020-07-29 02:00:00 21.1 12 Noroeste 26 Noroeste 0 -- -- 75
2020-07-29 01:00:00 21.5 13 Noroeste 24 Noroeste 0 -- -- 75
2020-07-29 00:00:00 22 14 Noroeste 30 Noroeste 0 -- -- 75
2020-07-28 23:00:00 22.8 15 Norte 36 Noroeste 0 -- -- 72
2020-07-28 22:00:00 23.5 19 Norte 37 Norte 0 -- -- 68
2020-07-28 21:00:00 24.6 24 Norte 39 Norte 0 -- -- 65
2020-07-28 20:00:00 27.1 20 Norte 37 Norte 0 -- -- 57
2020-07-28 19:00:00 29.2 17 Norte 36 Norte 0 -- -- 51
2020-07-28 18:00:00 31.3 19 Norte 33 Noroeste 0 -- -- 46
2020-07-28 17:00:00 32.1 18 Noroeste 31 Noroeste 0 -- -- 45
2020-07-28 16:00:00 31.4 17 Noroeste 29 Noroeste 0 -- -- 46
2020-07-28 15:00:00 30.7 15 Noroeste 28 Noroeste 0 -- -- 48
2020-07-28 14:00:00 29.7 15 Noroeste 31 Noroeste 0 -- -- 50
2020-07-28 13:00:00 28.4 17 Noroeste 32 Noroeste 0 -- -- 53
2020-07-28 12:00:00 26.7 17 Noroeste 33 Noroeste 0 -- -- 57
2020-07-28 11:00:00 25.4 18 Noroeste 32 Noroeste 0 -- -- 59
2020-07-28 10:00:00 24.1 20 Noroeste 37 Noroeste 0 -- -- 62
2020-07-28 09:00:00 22.5 16 Noroeste 31 Noroeste 0 -- -- 65
2020-07-28 08:00:00 20.4 14 Noroeste 24 Noroeste 0 -- -- 68
2020-07-28 07:00:00 19.9 12 Noroeste 26 Noroeste 0 -- -- 69
2020-07-28 06:00:00 19.9 15 Noroeste 27 Noroeste 0 -- -- 68
2020-07-28 05:00:00 20.8 14 Noroeste 26 Norte 0 -- -- 70
2020-07-28 04:00:00 22 13 Noroeste 23 Noroeste 0 -- -- 67
2020-07-28 03:00:00 22.1 12 Noroeste 31 Noroeste 0 -- -- 70
2020-07-28 02:00:00 22.6 17 Noroeste 30 Noroeste 0 -- -- 64
2020-07-28 01:00:00 23.1 16 Noroeste 30 Noroeste 0 -- -- 67
2020-07-28 00:00:00 24 14 Noroeste 37 Norte 0 -- -- 69
2020-07-27 23:00:00 26 16 Noroeste 28 Noroeste 0 -- -- 69
2020-07-27 22:00:00 27.8 5 Norte 18 Nordeste 0 -- -- 60
2020-07-27 21:00:00 29.6 12 Norte 39 Noroeste 0 -- -- 57
2020-07-27 20:00:00 30.4 4 Este 23 Noroeste 0 -- -- 67
2020-07-27 19:00:00 33.7 6 Nordeste 19 Oeste 0 -- -- 51
2020-07-27 18:00:00 36.1 5 Sudeste 23 Sudeste 0 -- -- 43
2020-07-27 17:00:00 37.3 12 Sudeste 21 Este 0 -- -- 32
2020-07-27 16:00:00 36.2 10 Sudeste 28 Sudeste 0 -- -- 37
2020-07-27 15:00:00 34.9 15 Sudeste 29 Sudeste 0 -- -- 41
2020-07-27 14:00:00 32.9 17 Sudeste 28 Sudeste 0 -- -- 42
2020-07-27 13:00:00 31.7 16 Sudeste 28 Sudeste 0 -- -- 49
2020-07-27 12:00:00 29.7 15 Sudeste 29 Sudeste 0 -- -- 53
2020-07-27 09:00:00 -- -- -- -- -- -- -- -- --
2020-07-27 08:00:00 -- -- -- -- -- -- -- -- --
2020-07-27 07:00:00 17.2 8 Sur 11 Sudeste 0 -- -- 88
2020-07-27 06:00:00 17.3 3 Sudoeste 9 Sudeste 0 -- -- 86
2020-07-27 05:00:00 17.1 4 Sur 6 Sur 0 -- -- 89
2020-07-27 04:00:00 17.4 5 Sudoeste 7 Sudoeste 0 -- -- 86
2020-07-27 03:00:00 18.3 2 Norte 8 Sudeste 0 -- -- 85
2020-07-27 02:00:00 19.4 4 Sudoeste 6 Sur 0 -- -- 83
2020-07-27 01:00:00 20.9 0 Calma 10 Noroeste 0 -- -- 72
2020-07-27 00:00:00 22.8 5 Noroeste 12 Noroeste 0 -- -- 67
2020-07-26 23:00:00 24.2 6 Noroeste 10 Noroeste 0 -- -- 61
2020-07-26 22:00:00 26.6 5 Noroeste 13 Norte 0 -- -- 55
2020-07-26 21:00:00 29.4 5 Norte 10 Norte 0 -- -- 46
2020-07-26 20:00:00 32.6 2 Norte 9 Norte 0 -- -- 34
2020-07-26 19:00:00 33.3 3 Noroeste 13 Norte 0 -- -- 31
2020-07-26 18:00:00 32.9 7 Norte 16 Nordeste 0 -- -- 34
2020-07-26 17:00:00 32.5 7 Nordeste 17 Nordeste 0 -- -- 37
2020-07-26 16:00:00 31.8 7 Este 17 Nordeste 0 -- -- 35
2020-07-26 15:00:00 30.9 9 Nordeste 19 Nordeste 0 -- -- 37
2020-07-26 14:00:00 30 8 Norte 22 Norte 0 -- -- 40
2020-07-26 13:00:00 28.2 11 Noroeste 23 Noroeste 0 -- -- 44
2020-07-26 12:00:00 26.6 12 Noroeste 24 Norte 0 -- -- 45
2020-07-26 11:00:00 24.9 14 Norte 26 Noroeste 0 -- -- 51
2020-07-26 10:00:00 23.4 16 Noroeste 24 Noroeste 0 -- -- 57
2020-07-26 09:00:00 20.9 12 Noroeste 23 Noroeste 0 -- -- 65
2020-07-26 08:00:00 18.7 10 Noroeste 21 Noroeste 0 -- -- 73
2020-07-26 07:00:00 17.6 12 Noroeste 23 Noroeste 0 -- -- 76
2020-07-26 06:00:00 18.2 11 Noroeste 30 Noroeste 0 -- -- 73
2020-07-26 05:00:00 18.8 15 Noroeste 26 Noroeste 0 -- -- 72
2020-07-26 04:00:00 19.4 15 Noroeste 27 Noroeste 0 -- -- 71
2020-07-26 03:00:00 19.6 13 Noroeste 26 Noroeste 0 -- -- 74
2020-07-26 02:00:00 20.4 14 Noroeste 25 Noroeste 0 -- -- 73
2020-07-26 01:00:00 21.2 14 Noroeste 37 Norte 0 -- -- 71
2020-07-26 00:00:00 22.4 9 Norte 49 Norte 0 -- -- 69
2020-07-25 23:00:00 24.5 23 Noroeste 39 Norte 0 -- -- 62
2020-07-25 22:00:00 26.2 3 Norte 6 Nordeste 0 -- -- 49
2020-07-25 21:00:00 30.3 4 Nordeste 7 Nordeste 0 -- -- 40
2020-07-25 20:00:00 33.1 3 Nordeste 8 Norte 0 -- -- 33
2020-07-25 19:00:00 33.5 3 Este 14 Nordeste 0 -- -- 27
2020-07-25 18:00:00 33.4 7 Este 15 Este 0 -- -- 31
2020-07-25 17:00:00 32.9 7 Este 15 Este 0 -- -- 27
2020-07-25 16:00:00 31.3 8 Nordeste 16 Este 0 -- -- 30
2020-07-25 15:00:00 29.9 5 Este 15 Este 0 -- -- 31
2020-07-25 14:00:00 28.6 6 Este 12 Este 0 -- -- 31
2020-07-25 13:00:00 26.4 4 Nordeste 11 Nordeste 0 -- -- 41
2020-07-25 12:00:00 24.4 5 Nordeste 18 Noroeste 0 -- -- 47
2020-07-25 11:00:00 22.7 8 Noroeste 19 Noroeste 0 -- -- 56
2020-07-25 10:00:00 20.4 10 Noroeste 21 Noroeste 0 -- -- 63
2020-07-25 09:00:00 18.4 12 Noroeste 25 Noroeste 0 -- -- 74
2020-07-25 08:00:00 15.8 8 Noroeste 17 Noroeste 0 -- -- 85
2020-07-25 07:00:00 13.6 5 Noroeste 14 Noroeste 0 -- -- 89
2020-07-25 06:00:00 14 6 Noroeste 12 Noroeste 0 -- -- 89
2020-07-25 05:00:00 15 6 Noroeste 13 Noroeste 0 -- -- 83
2020-07-25 04:00:00 15.9 8 Noroeste 17 Noroeste 0 -- -- 81
2020-07-25 03:00:00 16.1 7 Noroeste 17 Noroeste 0 -- -- 79
2020-07-25 02:00:00 17 8 Noroeste 19 Noroeste 0 -- -- 75
2020-07-25 01:00:00 18.5 12 Noroeste 21 Noroeste 0 -- -- 68
2020-07-25 00:00:00 19.2 10 Noroeste 22 Norte 0 -- -- 66
2020-07-24 23:00:00 19.9 10 Norte 23 Norte 0 -- -- 64
2020-07-24 22:00:00 21.4 14 Norte 33 Norte 0 -- -- 58
2020-07-24 21:00:00 23.3 19 Norte 34 Norte 0 -- -- 52
2020-07-24 20:00:00 25.3 19 Norte 37 Norte 0 -- -- 47
2020-07-24 19:00:00 26.8 21 Norte 39 Nordeste 0 -- -- 44
2020-07-24 18:00:00 27.7 21 Norte 36 Norte 0 -- -- 40
2020-07-24 17:00:00 28.5 18 Norte 36 Norte 0 -- -- 39
2020-07-24 16:00:00 28.8 14 Norte 32 Norte 0 -- -- 39
2020-07-24 15:00:00 28.6 15 Norte 29 Noroeste 0 -- -- 38
2020-07-24 14:00:00 28 12 Norte 28 Noroeste 0 -- -- 39
2020-07-24 13:00:00 27.4 14 Noroeste 29 Oeste 0 -- -- 40
2020-07-24 12:00:00 25.4 16 Noroeste 30 Noroeste 0 -- -- 47
2020-07-24 11:00:00 23.4 18 Noroeste 30 Noroeste 0 -- -- 48
2020-07-24 10:00:00 22.2 17 Noroeste 31 Norte 0 -- -- 54
2020-07-24 09:00:00 20.4 14 Noroeste 28 Noroeste 0 -- -- 61
2020-07-24 08:00:00 18.1 13 Noroeste 26 Noroeste 0 -- -- 69
2020-07-24 07:00:00 17 9 Noroeste 21 Noroeste 0 -- -- 72
2020-07-24 06:00:00 17.3 11 Noroeste 21 Noroeste 0 -- -- 71
2020-07-24 05:00:00 18.1 12 Noroeste 22 Noroeste 0 -- -- 67
2020-07-24 04:00:00 18.6 12 Noroeste 30 Noroeste 0 -- -- 66
2020-07-24 03:00:00 18.8 17 Noroeste 28 Noroeste 0 -- -- 60
2020-07-24 02:00:00 19 13 Noroeste 28 Norte 0 -- -- 67
2020-07-24 01:00:00 21.4 13 Noroeste 26 Noroeste 0 -- -- 51
2020-07-24 00:00:00 21.7 13 Noroeste 26 Noroeste 0 -- -- 54
2020-07-23 23:00:00 22.6 14 Norte 30 Norte 0 -- -- 56
2020-07-23 22:00:00 24.1 15 Norte 28 Norte 0 -- -- 58
2020-07-23 21:00:00 26.4 16 Norte 29 Norte 0 -- -- 53
2020-07-23 20:00:00 28.9 14 Norte 29 Norte 0 -- -- 48
2020-07-23 19:00:00 30.3 16 Norte 29 Norte 0 -- -- 47
2020-07-23 18:00:00 32 17 Norte 33 Nordeste 0 -- -- 46
2020-07-23 17:00:00 32.7 13 Norte 25 Nordeste 0 -- -- 44
2020-07-23 16:00:00 33.9 12 Noroeste 22 Noroeste 0 -- -- 40
2020-07-23 15:00:00 32.6 12 Noroeste 22 Noroeste 0 -- -- 43
2020-07-23 14:00:00 30.5 10 Noroeste 21 Norte 0 -- -- 49
2020-07-23 13:00:00 28.8 14 Noroeste 24 Noroeste 0 -- -- 55
2020-07-23 12:00:00 26.9 14 Noroeste 26 Norte 0 -- -- 61
2020-07-23 11:00:00 25.2 15 Norte 24 Noroeste 0 -- -- 66
2020-07-23 10:00:00 24.1 12 Noroeste 23 Norte 0 -- -- 70
2020-07-23 09:00:00 22.1 10 Norte 19 Noroeste 0 -- -- 78
2020-07-23 08:00:00 20.1 8 Noroeste 15 Noroeste 0 -- -- 86
2020-07-23 07:00:00 19 4 Noroeste 13 Noroeste 0 -- -- 88
2020-07-23 06:00:00 19.3 7 Noroeste 11 Noroeste 0 -- -- 88
2020-07-23 05:00:00 20 7 Noroeste 18 Noroeste 0 -- -- 85
2020-07-23 04:00:00 21 14 Noroeste 22 Noroeste 0 -- -- 82
2020-07-23 03:00:00 21.9 11 Noroeste 23 Noroeste 0 -- -- 78
2020-07-23 02:00:00 22.7 13 Noroeste 30 Noroeste 0 -- -- 75
2020-07-23 01:00:00 23.6 15 Noroeste 28 Noroeste 0 -- -- 71
2020-07-23 00:00:00 24.2 15 Noroeste 26 Noroeste 0 -- -- 72
2020-07-22 23:00:00 23.9 6 Noroeste 11 Norte 0 -- -- 61
2020-07-22 22:00:00 25.8 4 Este 8 Este 0 -- -- 59
2020-07-22 21:00:00 30.1 5 Sudeste 15 Este 0 -- -- 47
2020-07-22 20:00:00 32 10 Sudeste 17 Sudeste 0 -- -- 36
2020-07-22 19:00:00 33.5 11 Sudeste 24 Sudeste 0 -- -- 29
2020-07-22 18:00:00 34.1 8 Sudeste 20 Sudeste 0 -- -- 30
2020-07-22 17:00:00 34.2 6 Este 21 Este 0 -- -- 29
2020-07-22 16:00:00 33.5 7 Sudeste 19 Sudeste 0 -- -- 36
2020-07-22 15:00:00 32.4 10 Sur 21 Sur 0 -- -- 39
2020-07-22 14:00:00 30.6 10 Sur 22 Sudeste 0 -- -- 43
2020-07-22 13:00:00 28.2 6 Sudoeste 14 Sur 0 -- -- 53
2020-07-22 12:00:00 26.4 4 Este 13 Nordeste 0 -- -- 62
2020-07-22 11:00:00 25.2 5 Este 9 Nordeste 0 -- -- 65
2020-07-22 10:00:00 22.9 4 Noroeste 9 Norte 0 -- -- 73
2020-07-22 09:00:00 21.5 6 Norte 10 Norte 0 -- -- 82
2020-07-22 08:00:00 17.8 2 Sudoeste 8 Sudoeste 0 -- -- 96
2020-07-22 07:00:00 16.6 5 Oeste 7 Oeste 0 -- -- 95
2020-07-22 06:00:00 16.6 4 Sudoeste 9 Sudoeste 0 -- -- 94
2020-07-22 05:00:00 17.2 4 Oeste 5 Oeste 0 -- -- 92
2020-07-22 04:00:00 18.3 4 Sudoeste 8 Sudoeste 0 -- -- 92
2020-07-22 03:00:00 18.8 5 Noroeste 12 Oeste 0 -- -- 92
2020-07-22 02:00:00 19.8 9 Nordeste 17 Nordeste 0 -- -- 89
2020-07-22 01:00:00 19.5 6 Noroeste 9 Oeste 0 -- -- 87
2020-07-22 00:00:00 20.5 6 Sudeste 15 Noroeste 0.2 -- -- 85
2020-07-21 23:00:00 21.3 11 Noroeste 17 Oeste 0.2 -- -- 80
2020-07-21 22:00:00 22.5 4 Oeste 29 Noroeste 0 -- -- 76
2020-07-21 21:00:00 24.7 16 Noroeste 40 Noroeste 0 -- -- 55
2020-07-21 20:00:00 28.5 36 Oeste 57 Oeste 0 -- -- 46
2020-07-21 19:00:00 32.4 12 Sur 27 Sudeste 0 -- -- 37
2020-07-21 18:00:00 34.3 11 Sudeste 25 Sudeste 0 -- -- 39
2020-07-21 17:00:00 35.2 17 Sudeste 30 Sudeste 0 -- -- 34
2020-07-21 16:00:00 34.5 15 Sudeste 30 Sudeste 0 -- -- 38
2020-07-21 15:00:00 33.2 15 Sudeste 30 Sur 0 -- -- 42
2020-07-21 14:00:00 31.9 17 Sudeste 29 Sudeste 0 -- -- 45
2020-07-21 13:00:00 30.4 15 Sudeste 27 Sudeste 0 -- -- 50
2020-07-21 12:00:00 28.3 15 Sudeste 27 Sudeste 0 -- -- 53
2020-07-21 11:00:00 26.4 9 Sudeste 18 Sudeste 0 -- -- 56
2020-07-21 10:00:00 23.7 2 Sudoeste 6 Sudoeste 0 -- -- 59
2020-07-21 09:00:00 21.1 4 Norte 16 Noroeste 0 -- -- 69
2020-07-21 08:00:00 17.7 3 Oeste 5 Noroeste 0 -- -- 86
2020-07-21 07:00:00 16.4 3 Oeste 6 Noroeste 0 -- -- 83
2020-07-21 06:00:00 17.5 0 Calma 10 Noroeste 0 -- -- 77
2020-07-21 05:00:00 18.3 5 Noroeste 12 Noroeste 0 -- -- 74
2020-07-21 04:00:00 20 3 Norte 19 Noroeste 0 -- -- 67
2020-07-21 03:00:00 20.9 7 Norte 24 Norte 0 -- -- 64
2020-07-21 02:00:00 21.9 17 Noroeste 27 Noroeste 0 -- -- 61
2020-07-21 01:00:00 22.6 16 Noroeste 33 Noroeste 0 -- -- 62
2020-07-21 00:00:00 23.2 19 Noroeste 33 Norte 0 -- -- 63
2020-07-20 23:00:00 23.9 21 Noroeste 36 Noroeste 0 -- -- 62
2020-07-20 22:00:00 26.5 18 Noroeste 29 Noroeste 0 -- -- 57
2020-07-20 21:00:00 30.2 12 Nordeste 27 Este 0 -- -- 49
2020-07-20 20:00:00 33.6 17 Este 24 Este 0 -- -- 40
2020-07-20 19:00:00 35.5 5 Sudeste 17 Sur 0 -- -- 35
2020-07-20 18:00:00 35.6 9 Sudeste 27 Sudeste 0 -- -- 37
2020-07-20 17:00:00 35.3 5 Sudeste 14 Sur 0 -- -- 34
2020-07-20 16:00:00 34.1 9 Sudeste 24 Sudeste 0 -- -- 36
2020-07-20 15:00:00 33 15 Sudeste 27 Sudeste 0 -- -- 41
2020-07-20 14:00:00 31.8 16 Sudeste 27 Sudeste 0 -- -- 42
2020-07-20 13:00:00 30.3 11 Sur 24 Sudeste 0 -- -- 47
2020-07-20 12:00:00 27.8 5 Sudeste 13 Sudeste 0 -- -- 53
2020-07-20 11:00:00 25.4 6 Norte 13 Norte 0 -- -- 60
2020-07-20 10:00:00 23.8 8 Norte 17 Noroeste 0 -- -- 61
2020-07-20 09:00:00 22 11 Norte 19 Norte 0 -- -- 69
2020-07-20 08:00:00 20.4 9 Noroeste 18 Noroeste 0 -- -- 74
2020-07-20 07:00:00 19.1 8 Noroeste 18 Noroeste 0 -- -- 81
2020-07-20 06:00:00 20.1 11 Noroeste 21 Noroeste 0 -- -- 80
2020-07-20 05:00:00 20.7 12 Noroeste 20 Noroeste 0 -- -- 78
2020-07-20 04:00:00 21.5 11 Noroeste 19 Noroeste 0 -- -- 75
2020-07-20 03:00:00 22.2 10 Noroeste 17 Noroeste 0 -- -- 73
2020-07-20 02:00:00 23 9 Noroeste 13 Noroeste 0 -- -- 75
2020-07-20 01:00:00 23.7 6 Noroeste 26 Norte 0 -- -- 71
2020-07-20 00:00:00 27.2 14 Noroeste 25 Noroeste 0 -- -- 55
2020-07-19 23:00:00 26.6 8 Noroeste 16 Norte 0 -- -- 58
2020-07-19 22:00:00 27.5 3 Oeste 6 Sudoeste 0 -- -- 56
2020-07-19 21:00:00 32.3 3 Nordeste 5 Nordeste 0 -- -- 43
2020-07-19 20:00:00 34 3 Norte 10 Norte 0 -- -- 30
2020-07-19 19:00:00 34.6 5 Nordeste 16 Este 0 -- -- 29
2020-07-19 18:00:00 35 6 Nordeste 14 Nordeste 0 -- -- 28
2020-07-19 17:00:00 34.6 6 Nordeste 20 Este 0 -- -- 27
2020-07-19 16:00:00 33.9 8 Nordeste 18 Sudeste 0 -- -- 30
2020-07-19 15:00:00 32.8 8 Sudeste 17 Sur 0 -- -- 40
2020-07-19 14:00:00 31.1 6 Este 20 Este 0 -- -- 45
2020-07-19 13:00:00 29.6 7 Sudeste 23 Este 0 -- -- 50
2020-07-19 12:00:00 28.1 11 Este 20 Sudeste 0 -- -- 56
2020-07-19 11:00:00 26.3 8 Sudeste 20 Sur 0 -- -- 58
2020-07-19 10:00:00 23.2 5 Sur 13 Sudeste 0 -- -- 62
2020-07-19 09:00:00 20.5 3 Sudeste 5 Este 0 -- -- 70
2020-07-19 08:00:00 15.5 0 Calma 3 Sudeste 0 -- -- 90
2020-07-19 07:00:00 12.9 2 Oeste 6 Sudoeste 0 -- -- 90
2020-07-19 06:00:00 13.6 3 Sudoeste 6 Oeste 0 -- -- 89
2020-07-19 05:00:00 14.1 2 Sudeste 9 Oeste 0 -- -- 87
2020-07-19 04:00:00 15.2 4 Sudeste 6 Sudeste 0 -- -- 83
2020-07-19 03:00:00 16.3 0 Calma 8 Oeste 0 -- -- 78
2020-07-19 02:00:00 17.8 4 Oeste 7 Noroeste 0 -- -- 74
2020-07-19 01:00:00 19.8 4 Oeste 14 Noroeste 0 -- -- 67
2020-07-19 00:00:00 22.2 6 Noroeste 18 Noroeste 0 -- -- 58
2020-07-18 23:00:00 22.8 9 Noroeste 14 Norte 0 -- -- 56
2020-07-18 22:00:00 25.4 10 Noroeste 18 Norte 0 -- -- 49
2020-07-18 21:00:00 27.9 9 Norte 19 Norte 0 -- -- 43
2020-07-18 20:00:00 30.9 9 Nordeste 17 Nordeste 0 -- -- 36
2020-07-18 19:00:00 32.1 9 Nordeste 15 Este 0 -- -- 32
2020-07-18 18:00:00 32.3 5 Norte 15 Nordeste 0 -- -- 31
2020-07-18 17:00:00 32 6 Nordeste 13 Nordeste 0 -- -- 33
2020-07-18 16:00:00 30.9 5 Nordeste 13 Oeste 0 -- -- 33
2020-07-18 15:00:00 29.6 6 Nordeste 18 Norte 0 -- -- 38
2020-07-18 14:00:00 28.2 8 Noroeste 18 Noroeste 0 -- -- 41
2020-07-18 13:00:00 26.4 8 Norte 21 Nordeste 0 -- -- 45
2020-07-18 12:00:00 24.4 11 Norte 20 Nordeste 0 -- -- 49
2020-07-18 11:00:00 23.2 12 Norte 23 Norte 0 -- -- 55
2020-07-18 10:00:00 21.9 14 Norte 22 Norte 0 -- -- 58
2020-07-18 09:00:00 19.4 10 Noroeste 17 Norte 0 -- -- 67
2020-07-18 08:00:00 16.3 7 Noroeste 14 Noroeste 0 -- -- 78
2020-07-18 07:00:00 14.1 6 Noroeste 13 Noroeste 0 -- -- 84
2020-07-18 06:00:00 14.2 7 Noroeste 14 Noroeste 0 -- -- 82
2020-07-18 05:00:00 15 5 Noroeste 12 Noroeste 0 -- -- 79
2020-07-18 04:00:00 16.2 6 Noroeste 26 Noroeste 0 -- -- 74
2020-07-18 03:00:00 17.4 15 Noroeste 26 Noroeste 0 -- -- 70
2020-07-18 02:00:00 17.7 15 Noroeste 30 Noroeste 0 -- -- 68
2020-07-18 01:00:00 18 16 Noroeste 33 Noroeste 0 -- -- 67
2020-07-18 00:00:00 18.5 17 Noroeste 31 Noroeste 0 -- -- 66
2020-07-17 23:00:00 19.3 18 Noroeste 31 Noroeste 0 -- -- 64
2020-07-17 22:00:00 20.2 18 Noroeste 35 Norte 0 -- -- 60
2020-07-17 21:00:00 21.3 23 Norte 45 Norte 0 -- -- 56
2020-07-17 20:00:00 22.7 29 Norte 49 Norte 0 -- -- 52
2020-07-17 19:00:00 24 24 Norte 48 Norte 0 -- -- 47
2020-07-17 18:00:00 24.5 29 Norte 49 Noroeste 0 -- -- 46
2020-07-17 17:00:00 25.3 27 Norte 44 Norte 0 -- -- 44
2020-07-17 16:00:00 26.5 24 Norte 46 Noroeste 0 -- -- 40
2020-07-17 15:00:00 26 26 Noroeste 42 Noroeste 0 -- -- 41
2020-07-17 14:00:00 25.3 24 Noroeste 46 Noroeste 0 -- -- 43
2020-07-17 13:00:00 24.1 24 Noroeste 43 Norte 0 -- -- 46
2020-07-17 12:00:00 22.4 27 Norte 47 Norte 0 -- -- 51
2020-07-17 11:00:00 21.3 25 Noroeste 43 Noroeste 0 -- -- 57
2020-07-17 10:00:00 19.8 28 Noroeste 43 Noroeste 0 -- -- 61
2020-07-17 09:00:00 18.5 21 Noroeste 34 Noroeste 0 -- -- 66
2020-07-17 08:00:00 16.5 19 Noroeste 37 Noroeste 0 -- -- 73
2020-07-17 07:00:00 15.2 19 Noroeste 37 Noroeste 0 -- -- 79
2020-07-17 06:00:00 15.3 19 Noroeste 33 Noroeste 0 -- -- 79
2020-07-17 05:00:00 15.2 11 Noroeste 24 Noroeste 0 -- -- 81
2020-07-17 04:00:00 15.6 14 Noroeste 30 Noroeste 0 -- -- 81
2020-07-17 03:00:00 16 17 Noroeste 33 Noroeste 0 -- -- 80
2020-07-17 02:00:00 16.4 15 Noroeste 28 Norte 0 -- -- 78
2020-07-17 01:00:00 16.1 12 Noroeste 24 Noroeste 0 -- -- 79
2020-07-17 00:00:00 16.6 14 Norte 25 Norte 0 -- -- 76
2020-07-16 23:00:00 17.5 15 Norte 35 Norte 0 -- -- 71
2020-07-16 22:00:00 18.8 14 Norte 36 Norte 0 -- -- 67
2020-07-16 21:00:00 20.5 18 Norte 39 Norte 0 -- -- 62
2020-07-16 20:00:00 22.6 22 Norte 37 Norte 0 -- -- 57
2020-07-16 19:00:00 24.4 20 Norte 40 Norte 0 -- -- 52
2020-07-16 18:00:00 25.4 23 Norte 39 Norte 0 -- -- 51
2020-07-16 17:00:00 26.9 18 Norte 34 Norte 0 -- -- 47
2020-07-16 16:00:00 27.4 19 Norte 36 Norte 0 -- -- 39
2020-07-16 15:00:00 26.9 21 Norte 36 Norte 0 -- -- 42
2020-07-16 14:00:00 26.1 20 Noroeste 32 Noroeste 0 -- -- 43
2020-07-16 13:00:00 25.1 15 Noroeste 36 Noroeste 0 -- -- 47
2020-07-16 12:00:00 23.4 17 Noroeste 31 Noroeste 0 -- -- 51
2020-07-16 11:00:00 21.4 18 Noroeste 32 Norte 0 -- -- 54
2020-07-16 10:00:00 19.8 18 Noroeste 32 Noroeste 0 -- -- 60
2020-07-16 09:00:00 18.5 17 Noroeste 30 Noroeste 0 -- -- 64
2020-07-16 08:00:00 15.8 9 Noroeste 19 Norte 0 -- -- 75
2020-07-16 07:00:00 14.2 9 Noroeste 22 Noroeste 0 -- -- 80
2020-07-16 06:00:00 14 9 Noroeste 20 Norte 0 -- -- 81
2020-07-16 05:00:00 14.4 8 Noroeste 17 Norte 0 -- -- 78
2020-07-16 04:00:00 15 9 Noroeste 23 Noroeste 0 -- -- 74
2020-07-16 03:00:00 15.5 13 Norte 27 Noroeste 0 -- -- 74
2020-07-16 02:00:00 16.3 18 Norte 28 Noroeste 0 -- -- 69
2020-07-16 01:00:00 15.9 8 Noroeste 20 Norte 0 -- -- 69
2020-07-16 00:00:00 16.9 12 Norte 30 Norte 0 -- -- 66
2020-07-15 23:00:00 18 17 Norte 28 Norte 0 -- -- 59
2020-07-15 22:00:00 19 12 Norte 32 Norte 0 -- -- 56
2020-07-15 21:00:00 20.8 18 Norte 35 Norte 0 -- -- 49
2020-07-15 20:00:00 22.5 21 Norte 39 Norte 0 -- -- 47
2020-07-15 19:00:00 23.5 18 Norte 33 Norte 0 -- -- 45
2020-07-15 18:00:00 24.4 17 Norte 38 Norte 0 -- -- 46
2020-07-15 17:00:00 24.8 21 Norte 39 Norte 0 -- -- 43
2020-07-15 16:00:00 24.9 21 Norte 40 Noroeste 0 -- -- 44
2020-07-15 15:00:00 23.5 18 Noroeste 40 Noroeste 0 -- -- 53
2020-07-15 14:00:00 24.2 18 Noroeste 36 Noroeste 0 -- -- 49
2020-07-15 13:00:00 23.2 18 Noroeste 38 Noroeste 0 -- -- 53
2020-07-15 12:00:00 23.3 17 Noroeste 39 Noroeste 0 -- -- 52
2020-07-15 11:00:00 21.8 21 Noroeste 37 Noroeste 0 -- -- 56
2020-07-15 10:00:00 20.8 18 Noroeste 36 Noroeste 0 -- -- 56
2020-07-15 09:00:00 17.9 13 Noroeste 25 Noroeste 0 -- -- 55
2020-07-15 08:00:00 15 10 Noroeste 21 Norte 0 -- -- 64
2020-07-15 07:00:00 14 11 Norte 28 Noroeste 0 -- -- 69
2020-07-15 06:00:00 14.1 14 Noroeste 27 Noroeste 0 -- -- 69
2020-07-15 05:00:00 13.2 9 Noroeste 20 Noroeste 0 -- -- 68
2020-07-15 04:00:00 13.8 11 Noroeste 22 Noroeste 0 -- -- 67
2020-07-15 03:00:00 14.3 11 Noroeste 26 Noroeste 0 -- -- 66
2020-07-15 02:00:00 15.1 13 Noroeste 25 Noroeste 0 -- -- 60
2020-07-15 01:00:00 15.9 15 Noroeste 26 Noroeste 0 -- -- 58
2020-07-15 00:00:00 16.7 14 Noroeste 29 Noroeste 0 -- -- 48
2020-07-14 23:00:00 16.8 10 Noroeste 20 Norte 0 -- -- 41
2020-07-14 22:00:00 18.4 12 Norte 32 Norte 0 -- -- 38
2020-07-14 21:00:00 20.8 19 Norte 39 Norte 0 -- -- 33
2020-07-14 20:00:00 23.2 23 Norte 36 Norte 0 -- -- 33
2020-07-14 19:00:00 24.7 22 Norte 40 Norte 0 -- -- 35
2020-07-14 18:00:00 26.4 22 Norte 37 Norte 0 -- -- 32
2020-07-14 17:00:00 26.8 18 Norte 43 Norte 0 -- -- 32
2020-07-14 16:00:00 27.1 21 Noroeste 34 Norte 0 -- -- 28
2020-07-14 15:00:00 27 19 Norte 37 Norte 0 -- -- 27
2020-07-14 14:00:00 25.3 22 Noroeste 37 Noroeste 0 -- -- 30
2020-07-14 13:00:00 24.3 19 Noroeste 38 Noroeste 0 -- -- 34
2020-07-14 12:00:00 23.4 22 Noroeste 37 Noroeste 0 -- -- 36
2020-07-14 11:00:00 21.7 21 Noroeste 35 Noroeste 0 -- -- 42
2020-07-14 10:00:00 20.3 21 Noroeste 33 Noroeste 0 -- -- 45
2020-07-14 09:00:00 17.7 17 Noroeste 27 Noroeste 0 -- -- 60
2020-07-14 08:00:00 15.2 13 Noroeste 28 Noroeste 0 -- -- 71
2020-07-14 07:00:00 14.5 13 Noroeste 24 Noroeste 0 -- -- 73
2020-07-14 06:00:00 14.1 12 Noroeste 25 Noroeste 0 -- -- 75
2020-07-14 05:00:00 14.3 14 Noroeste 22 Noroeste 0 -- -- 73
2020-07-14 04:00:00 15 12 Norte 22 Noroeste 0 -- -- 66
2020-07-14 03:00:00 15.5 9 Noroeste 26 Noroeste 0 -- -- 62
2020-07-14 02:00:00 16 14 Noroeste 22 Noroeste 0 -- -- 59
2020-07-14 01:00:00 17.5 12 Noroeste 27 Norte 0 -- -- 54
2020-07-14 00:00:00 18.3 15 Noroeste 27 Noroeste 0 -- -- 47